Time;durP1;ratioP1;P1;durP2;ratioP2;P2;SDS_P1;SDS_P2;PMS_P1;PMS_P2;Temp;Humidity;BMP_temperature;BMP_pressure;BME280_temperature;BME280_humidity;BME280_pressure;Samples;Min_cycle;Max_cycle;Signal;HPM_P1;HPM_P2
2022/01/04 00:01:26;;;;;;;0.10;0.10;;;10.00;99.90;;;;;;5064431;28;20195;-84
2022/01/04 00:03:52;;;;;;;0.50;0.50;;;10.00;99.90;;;;;;5061707;28;20571;-84
2022/01/04 00:06:18;;;;;;;0.30;0.30;;;10.10;99.90;;;;;;5064989;28;20294;-84
2022/01/04 00:08:43;;;;;;;0.10;0.10;;;10.00;99.90;;;;;;5061951;28;20595;-84
2022/01/04 00:11:16;;;;;;;0.73;0.73;;;9.80;99.90;;;;;;5068318;28;20184;-85
2022/01/04 00:13:44;;;;;;;0.10;0.10;;;10.00;99.90;;;;;;5067049;28;20235;-85
2022/01/04 00:16:10;;;;;;;0.20;0.20;;;10.20;99.90;;;;;;5067841;28;20180;-85
2022/01/04 00:18:37;;;;;;;0.10;0.10;;;10.40;99.90;;;;;;5063816;28;20523;-85
2022/01/04 00:21:03;;;;;;;0.53;0.53;;;10.20;99.90;;;;;;5066814;28;20172;-85
2022/01/04 00:23:29;;;;;;;0.40;0.40;;;10.10;99.90;;;;;;5067997;28;20203;-84
2022/01/04 00:25:54;;;;;;;0.10;0.10;;;10.20;99.90;;;;;;5067598;28;20278;-85
2022/01/04 00:28:20;;;;;;;0.73;0.73;;;10.40;99.90;;;;;;5061649;28;20268;-84
2022/01/04 00:30:45;;;;;;;0.83;0.33;;;10.50;99.90;;;;;;5064390;28;20188;-85
2022/01/04 00:33:13;;;;;;;0.30;0.30;;;10.60;99.90;;;;;;5063702;28;20299;-84
2022/01/04 00:35:40;;;;;;;0.20;0.20;;;10.50;99.90;;;;;;5064507;28;20267;-84
2022/01/04 00:38:06;;;;;;;0.10;0.10;;;10.50;99.90;;;;;;5061506;28;20216;-85
2022/01/04 00:40:32;;;;;;;0.57;0.50;;;10.60;99.90;;;;;;5067531;28;20176;-84
2022/01/04 00:42:58;;;;;;;0.20;0.20;;;10.50;99.90;;;;;;5066393;28;20257;-84
2022/01/04 00:45:31;;;;;;;0.27;0.27;;;10.50;99.90;;;;;;5066676;28;20199;-84
2022/01/04 00:50:23;;;;;;;0.50;0.37;;;10.60;99.90;;;;;;5068083;28;20299;-84
2022/01/04 00:52:49;;;;;;;0.63;0.20;;;10.60;99.90;;;;;;5064730;28;20224;-84
2022/01/04 00:55:14;;;;;;;0.37;0.10;;;10.70;99.90;;;;;;5068110;28;20249;-84
2022/01/04 00:57:41;;;;;;;0.20;0.20;;;10.50;99.90;;;;;;5065914;28;20180;-84
2022/01/04 01:00:08;;;;;;;0.43;0.20;;;10.40;99.90;;;;;;5066830;28;20191;-84
2022/01/04 01:02:34;;;;;;;0.20;0.20;;;10.50;99.90;;;;;;5064496;28;20187;-84
2022/01/04 01:05:00;;;;;;;0.50;0.50;;;10.60;99.90;;;;;;5067738;28;20263;-84
2022/01/04 01:07:26;;;;;;;0.27;0.27;;;10.50;99.90;;;;;;5066260;28;20180;-84
2022/01/04 01:12:55;;;;;;;0.20;0.20;;;10.60;99.90;;;;;;5061013;28;20215;-84
2022/01/04 01:15:21;;;;;;;0.17;0.17;;;10.60;99.90;;;;;;5068421;28;20180;-84
2022/01/04 01:17:47;;;;;;;0.70;0.70;;;10.70;99.90;;;;;;5060929;28;20215;-83
2022/01/04 01:20:14;;;;;;;0.30;0.30;;;10.70;99.90;;;;;;5070617;28;20177;-83
2022/01/04 01:22:41;;;;;;;0.20;0.20;;;10.80;99.90;;;;;;5067524;28;20204;-84
2022/01/04 01:25:08;;;;;;;0.57;0.20;;;10.70;99.90;;;;;;5070360;28;20179;-84
2022/01/04 01:27:34;;;;;;;0.97;0.27;;;10.70;99.90;;;;;;5067100;28;20243;-84
2022/01/04 01:29:59;;;;;;;0.87;0.30;;;10.80;99.90;;;;;;5063302;28;20229;-84
2022/01/04 01:32:25;;;;;;;0.43;0.20;;;10.80;99.90;;;;;;5063391;28;20225;-83
2022/01/04 01:34:50;;;;;;;0.10;0.10;;;10.60;99.90;;;;;;5066358;28;20197;-84
2022/01/04 01:37:16;;;;;;;0.40;0.40;;;10.70;99.90;;;;;;5066059;28;20180;-84
2022/01/04 01:39:42;;;;;;;0.20;0.20;;;10.70;99.90;;;;;;5066077;28;20183;-84
2022/01/04 01:42:07;;;;;;;0.20;0.20;;;10.70;99.90;;;;;;5062381;28;20191;-84
2022/01/04 01:44:35;;;;;;;0.20;0.20;;;10.60;99.90;;;;;;5065503;28;20212;-84
2022/01/04 01:47:01;;;;;;;0.20;0.10;;;10.60;99.90;;;;;;5065867;28;20177;-84
2022/01/04 01:49:27;;;;;;;0.23;0.23;;;10.50;99.90;;;;;;5063477;28;20188;-84
2022/01/04 01:51:53;;;;;;;0.17;0.17;;;10.40;99.90;;;;;;5063261;28;20185;-83
2022/01/04 01:54:19;;;;;;;1.53;0.20;;;10.30;99.90;;;;;;5064153;28;20303;-84
2022/01/04 01:56:45;;;;;;;0.10;0.10;;;10.40;99.90;;;;;;5067010;28;20184;-84
2022/01/04 01:59:13;;;;;;;0.10;0.10;;;10.50;99.90;;;;;;5066798;28;20192;-84
2022/01/04 02:01:38;;;;;;;0.10;0.10;;;10.60;99.90;;;;;;5065339;28;20290;-84
2022/01/04 02:04:04;;;;;;;0.30;0.30;;;10.70;99.90;;;;;;5060978;28;20816;-84
2022/01/04 02:06:30;;;;;;;1.90;0.70;;;10.50;99.90;;;;;;5065798;28;20184;-84
2022/01/04 02:08:57;;;;;;;0.40;0.37;;;10.50;99.90;;;;;;5064453;28;20186;-84
2022/01/04 02:11:23;;;;;;;0.30;0.30;;;10.50;99.90;;;;;;5067164;28;20195;-84
2022/01/04 02:13:49;;;;;;;0.20;0.20;;;10.60;99.90;;;;;;5063552;28;20229;-84
2022/01/04 02:16:16;;;;;;;0.30;0.30;;;10.70;99.90;;;;;;5062543;28;20690;-84
2022/01/04 02:18:42;;;;;;;0.20;0.20;;;10.70;99.90;;;;;;5065189;28;20227;-84
2022/01/04 02:21:07;;;;;;;0.20;0.10;;;10.80;99.90;;;;;;5065558;28;20759;-84
2022/01/04 02:23:34;;;;;;;0.10;0.10;;;10.80;99.90;;;;;;5064916;28;20721;-84
2022/01/04 02:26:02;;;;;;;0.00;0.00;;;10.80;99.90;;;;;;5060120;28;20180;-83
2022/01/04 02:28:29;;;;;;;0.23;0.23;;;10.80;99.90;;;;;;5064211;28;20189;-85
2022/01/04 02:30:55;;;;;;;0.10;0.10;;;10.80;99.90;;;;;;5060865;28;20233;-84
2022/01/04 02:33:21;;;;;;;0.20;0.20;;;10.80;99.90;;;;;;5061079;28;20290;-84
2022/01/04 02:35:46;;;;;;;0.10;0.10;;;10.80;99.90;;;;;;5060190;28;20182;-84
2022/01/04 02:38:11;;;;;;;0.47;0.27;;;10.80;99.90;;;;;;5064157;28;20325;-83
2022/01/04 02:40:37;;;;;;;0.10;0.10;;;10.60;99.90;;;;;;5065205;28;20188;-84
2022/01/04 02:43:03;;;;;;;0.63;0.63;;;10.60;99.90;;;;;;5065297;28;20214;-83
2022/01/04 02:45:29;;;;;;;0.20;0.20;;;10.50;99.90;;;;;;5064157;28;20249;-84
2022/01/04 02:47:55;;;;;;;0.20;0.20;;;10.50;99.90;;;;;;5065844;28;20207;-84
2022/01/04 02:50:20;;;;;;;0.20;0.20;;;10.40;99.90;;;;;;5058542;28;20189;-84
2022/01/04 02:52:46;;;;;;;0.20;0.20;;;10.60;99.90;;;;;;5062637;28;20234;-84
2022/01/04 02:55:15;;;;;;;0.30;0.30;;;10.70;99.90;;;;;;5061964;28;20537;-84
2022/01/04 02:57:41;;;;;;;0.40;0.30;;;10.70;99.90;;;;;;5062692;28;20290;-84
2022/01/04 03:00:10;;;;;;;0.13;0.13;;;10.80;99.90;;;;;;5065343;28;20567;-84
2022/01/04 03:02:37;;;;;;;0.00;0.00;;;10.90;99.90;;;;;;5064417;28;20176;-84
2022/01/04 03:05:03;;;;;;;0.10;0.10;;;10.90;99.90;;;;;;5065793;28;20247;-83
2022/01/04 03:07:29;;;;;;;0.20;0.20;;;10.70;99.90;;;;;;5064057;28;20275;-83
2022/01/04 03:09:54;;;;;;;0.10;0.10;;;10.70;99.90;;;;;;5065439;28;20312;-84
2022/01/04 03:12:21;;;;;;;0.10;0.10;;;10.80;99.90;;;;;;5062432;28;20188;-84
2022/01/04 03:14:47;;;;;;;0.03;0.03;;;10.90;99.90;;;;;;5063815;28;20202;-84
2022/01/04 03:17:12;;;;;;;0.10;0.10;;;10.90;99.90;;;;;;5062799;28;20198;-84
2022/01/04 03:19:38;;;;;;;0.10;0.10;;;10.90;99.90;;;;;;5063470;28;20654;-84
2022/01/04 03:22:04;;;;;;;0.20;0.20;;;10.90;99.90;;;;;;5061489;28;20193;-83
2022/01/04 03:24:29;;;;;;;0.27;0.13;;;10.90;99.90;;;;;;5065627;28;20209;-84
2022/01/04 03:26:55;;;;;;;0.10;0.10;;;10.90;99.90;;;;;;5061707;28;20241;-84
2022/01/04 03:29:21;;;;;;;0.20;0.20;;;10.90;99.90;;;;;;5063484;28;20711;-83
2022/01/04 03:31:46;;;;;;;0.10;0.10;;;11.00;99.90;;;;;;5064920;28;20177;-84
2022/01/04 03:34:13;;;;;;;0.20;0.10;;;10.90;99.90;;;;;;5063857;28;21265;-84
2022/01/04 03:36:39;;;;;;;0.10;0.10;;;11.00;99.90;;;;;;5062024;28;20184;-83
2022/01/04 03:39:06;;;;;;;0.10;0.10;;;11.00;99.90;;;;;;5063008;28;20190;-84
2022/01/04 03:41:38;;;;;;;0.40;0.40;;;11.00;99.90;;;;;;5060799;28;20176;-84
2022/01/04 03:44:09;;;;;;;0.10;0.10;;;11.00;99.90;;;;;;5064608;28;20767;-84
2022/01/04 03:46:36;;;;;;;0.67;0.20;;;11.00;99.90;;;;;;5062377;28;20553;-83
2022/01/04 03:49:02;;;;;;;0.10;0.10;;;11.10;99.90;;;;;;5057444;28;20679;-84
2022/01/04 03:51:28;;;;;;;0.20;0.20;;;11.10;99.90;;;;;;5065562;28;20199;-83
2022/01/04 03:53:53;;;;;;;0.10;0.10;;;11.10;99.90;;;;;;5064786;28;20215;-84
2022/01/04 03:56:19;;;;;;;0.10;0.10;;;11.10;99.90;;;;;;5061608;28;20200;-83
2022/01/04 03:58:44;;;;;;;1.30;0.30;;;10.80;99.90;;;;;;5062911;28;20307;-84
2022/01/04 04:01:10;;;;;;;0.10;0.10;;;10.80;99.90;;;;;;5063315;28;21108;-85
2022/01/04 04:03:35;;;;;;;0.13;0.13;;;10.90;99.90;;;;;;5064943;28;20208;-84
2022/01/04 04:06:01;;;;;;;0.10;0.10;;;10.90;99.90;;;;;;5060919;28;20930;-84
2022/01/04 04:08:27;;;;;;;0.20;0.13;;;11.00;99.90;;;;;;5055208;28;20193;-84
2022/01/04 04:10:52;;;;;;;0.10;0.10;;;10.80;99.90;;;;;;5062695;28;20231;-84
2022/01/04 04:13:18;;;;;;;0.27;0.27;;;10.70;99.90;;;;;;5065243;28;20247;-84
2022/01/04 04:15:44;;;;;;;0.10;0.10;;;10.70;99.90;;;;;;5063762;28;20242;-84
2022/01/04 04:18:11;;;;;;;0.10;0.10;;;10.70;99.90;;;;;;5060929;28;21094;-84
2022/01/04 04:20:38;;;;;;;0.10;0.10;;;10.80;99.90;;;;;;5065345;28;20197;-84
2022/01/04 04:23:04;;;;;;;0.20;0.20;;;10.90;99.90;;;;;;5063910;28;20205;-84
2022/01/04 04:25:31;;;;;;;0.10;0.10;;;11.00;99.90;;;;;;5060011;28;20213;-84
2022/01/04 04:27:57;;;;;;;0.10;0.10;;;11.00;99.90;;;;;;5064927;28;20198;-84
2022/01/04 04:30:22;;;;;;;0.20;0.20;;;11.00;99.90;;;;;;5062383;28;20177;-84
2022/01/04 04:32:48;;;;;;;0.10;0.10;;;11.10;99.90;;;;;;5060382;28;20265;-84
2022/01/04 04:35:14;;;;;;;0.30;0.30;;;11.10;99.90;;;;;;5062547;28;20791;-84
2022/01/04 04:37:40;;;;;;;0.10;0.10;;;11.20;99.90;;;;;;5059050;28;20189;-85
2022/01/04 04:40:06;;;;;;;0.10;0.10;;;11.20;99.90;;;;;;5061491;28;20257;-84
2022/01/04 04:42:33;;;;;;;0.10;0.10;;;11.20;99.90;;;;;;5062830;28;20581;-83
2022/01/04 04:44:58;;;;;;;0.70;0.70;;;11.20;99.90;;;;;;5065910;28;21199;-84
2022/01/04 04:47:24;;;;;;;0.10;0.10;;;11.10;99.90;;;;;;5063055;28;20215;-83
2022/01/04 04:49:49;;;;;;;0.67;0.30;;;10.90;99.90;;;;;;5060305;28;20189;-84
2022/01/04 04:52:15;;;;;;;0.57;0.57;;;10.90;99.90;;;;;;5063337;28;20272;-84
2022/01/04 04:54:40;;;;;;;0.40;0.37;;;10.90;99.90;;;;;;5066477;28;20204;-84
2022/01/04 04:57:06;;;;;;;0.10;0.10;;;10.90;99.90;;;;;;5068055;28;20181;-84
2022/01/04 04:59:32;;;;;;;0.30;0.30;;;11.00;99.90;;;;;;5074880;28;20207;-84
2022/01/04 05:01:57;;;;;;;1.47;0.27;;;11.00;99.90;;;;;;5064932;28;20181;-84
2022/01/04 05:04:23;;;;;;;0.37;0.17;;;11.00;99.90;;;;;;5065908;28;20368;-83
2022/01/04 05:06:49;;;;;;;0.57;0.40;;;11.00;99.90;;;;;;5068063;28;20224;-83
2022/01/04 05:09:14;;;;;;;0.30;0.30;;;11.00;99.90;;;;;;5062319;28;20184;-84
2022/01/04 05:11:40;;;;;;;2.83;0.60;;;11.10;99.90;;;;;;5062594;28;20620;-84
2022/01/04 05:14:05;;;;;;;1.00;0.40;;;11.20;99.90;;;;;;5064279;28;20301;-84
2022/01/04 05:16:31;;;;;;;0.37;0.30;;;11.20;99.90;;;;;;5067368;28;20181;-84
2022/01/04 05:18:56;;;;;;;0.67;0.17;;;11.10;99.90;;;;;;5063626;28;20881;-84
2022/01/04 05:21:22;;;;;;;0.10;0.10;;;11.10;99.90;;;;;;5066093;28;20181;-83
2022/01/04 05:23:49;;;;;;;0.50;0.50;;;10.90;99.90;;;;;;5066293;28;20298;-84
2022/01/04 05:26:15;;;;;;;0.20;0.20;;;10.90;99.90;;;;;;5062391;28;20293;-84
2022/01/04 05:28:43;;;;;;;0.10;0.10;;;10.70;99.90;;;;;;5063173;28;20653;-84
2022/01/04 05:31:09;;;;;;;1.33;0.43;;;10.40;99.90;;;;;;5067166;28;20189;-84
2022/01/04 05:33:34;;;;;;;0.10;0.10;;;10.50;99.90;;;;;;5066823;28;20223;-84
2022/01/04 05:36:00;;;;;;;0.10;0.10;;;10.50;99.90;;;;;;5066709;28;20197;-84
2022/01/04 05:38:26;;;;;;;0.10;0.10;;;10.50;99.90;;;;;;5065311;28;20196;-83
2022/01/04 05:40:52;;;;;;;0.20;0.20;;;10.30;99.90;;;;;;5063375;28;20189;-83
2022/01/04 05:43:18;;;;;;;0.10;0.10;;;10.10;99.90;;;;;;5066123;28;20204;-84
2022/01/04 05:45:43;;;;;;;0.00;0.00;;;10.00;99.90;;;;;;5062940;28;20708;-84
2022/01/04 05:48:09;;;;;;;0.07;0.07;;;9.70;99.90;;;;;;5060840;28;20206;-83
2022/01/04 05:50:34;;;;;;;1.13;0.20;;;9.60;99.90;;;;;;5061583;28;20215;-84
2022/01/04 05:53:00;;;;;;;0.67;0.40;;;9.40;99.90;;;;;;5061018;28;20204;-84
2022/01/04 05:55:26;;;;;;;0.10;0.10;;;9.50;99.90;;;;;;5066448;28;20240;-85
2022/01/04 05:57:51;;;;;;;0.10;0.10;;;9.70;99.90;;;;;;5065569;28;20183;-84
2022/01/04 06:00:17;;;;;;;0.10;0.10;;;9.60;99.90;;;;;;5059431;28;20182;-84
2022/01/04 06:02:43;;;;;;;0.00;0.00;;;9.50;99.90;;;;;;5082299;28;20212;-83
2022/01/04 06:05:09;;;;;;;0.10;0.10;;;9.70;99.90;;;;;;5065431;28;20191;-84
2022/01/04 06:07:35;;;;;;;0.10;0.10;;;9.80;99.90;;;;;;5063308;28;20187;-84
2022/01/04 06:10:02;;;;;;;0.13;0.13;;;9.60;99.90;;;;;;5063628;28;20268;-84
2022/01/04 06:15:00;;;;;;;0.10;0.10;;;9.20;99.90;;;;;;5066780;28;20271;-84
2022/01/04 06:17:39;;;;;;;0.00;0.00;;;9.20;99.90;;;;;;5066791;28;20276;-84
2022/01/04 06:20:16;;;;;;;0.10;0.10;;;9.40;99.90;;;;;;5063019;28;20184;-84
2022/01/04 06:22:42;;;;;;;0.10;0.10;;;9.10;99.90;;;;;;5064943;28;20213;-84
2022/01/04 06:25:14;;;;;;;0.00;0.00;;;9.10;99.90;;;;;;5061500;28;20553;-84
2022/01/04 06:27:44;;;;;;;0.00;0.00;;;9.20;99.90;;;;;;5065320;28;20176;-83
2022/01/04 06:30:10;;;;;;;0.10;0.10;;;9.00;99.90;;;;;;5065249;28;20601;-83
2022/01/04 06:32:36;;;;;;;0.10;0.10;;;9.00;99.90;;;;;;5064641;28;20208;-83
2022/01/04 06:35:03;;;;;;;0.20;0.20;;;9.10;99.90;;;;;;5064825;28;20233;-84
2022/01/04 06:37:29;;;;;;;0.10;0.10;;;8.90;99.90;;;;;;5064731;28;20190;-84
2022/01/04 06:39:54;;;;;;;0.10;0.10;;;8.80;99.90;;;;;;5065545;28;20659;-85
2022/01/04 06:42:20;;;;;;;0.10;0.10;;;8.90;99.90;;;;;;5064900;28;20181;-84
2022/01/04 06:44:45;;;;;;;0.20;0.20;;;8.70;99.90;;;;;;5061168;28;20264;-84
2022/01/04 06:47:11;;;;;;;0.47;0.43;;;8.70;99.90;;;;;;5063292;28;20181;-85
2022/01/04 06:49:37;;;;;;;0.10;0.10;;;8.70;99.90;;;;;;5067065;28;20185;-85
2022/01/04 06:52:04;;;;;;;0.10;0.10;;;8.60;99.90;;;;;;5065067;28;20189;-84
2022/01/04 06:54:29;;;;;;;0.10;0.10;;;8.50;99.90;;;;;;5063948;28;20218;-84
2022/01/04 06:56:55;;;;;;;0.10;0.10;;;8.40;99.90;;;;;;5063678;28;20821;-83
2022/01/04 06:59:21;;;;;;;0.03;0.03;;;8.40;99.90;;;;;;5062465;28;21029;-85
2022/01/04 07:01:47;;;;;;;0.10;0.10;;;8.40;99.90;;;;;;5064864;28;20173;-84
2022/01/04 07:04:13;;;;;;;0.20;0.20;;;8.30;99.90;;;;;;5063623;28;20198;-84
2022/01/04 07:06:39;;;;;;;0.07;0.07;;;8.30;99.90;;;;;;5064869;28;20186;-85
2022/01/04 07:09:06;;;;;;;0.10;0.10;;;8.30;99.90;;;;;;5065566;28;20187;-85
2022/01/04 07:11:32;;;;;;;0.10;0.10;;;8.40;99.90;;;;;;5064054;28;20181;-85
2022/01/04 07:13:58;;;;;;;0.10;0.10;;;8.30;99.90;;;;;;5064468;28;20216;-83
2022/01/04 07:16:24;;;;;;;0.10;0.10;;;8.40;99.90;;;;;;5063595;28;20337;-83
2022/01/04 07:18:49;;;;;;;0.10;0.10;;;8.30;99.90;;;;;;5061157;28;20186;-84
2022/01/04 07:21:16;;;;;;;0.10;0.10;;;8.40;99.90;;;;;;5064560;28;20181;-83
2022/01/04 07:23:43;;;;;;;0.10;0.10;;;8.50;99.90;;;;;;5064319;28;20348;-84
2022/01/04 07:26:14;;;;;;;0.00;0.00;;;8.40;99.90;;;;;;5064547;28;20185;-83
2022/01/04 07:28:40;;;;;;;0.10;0.10;;;8.40;99.90;;;;;;5063242;28;20680;-84
2022/01/04 07:31:06;;;;;;;0.10;0.10;;;8.60;99.90;;;;;;5065862;28;20202;-84
2022/01/04 07:33:32;;;;;;;0.10;0.10;;;8.70;99.90;;;;;;5064201;28;20687;-82
2022/01/04 07:35:57;;;;;;;0.10;0.10;;;8.60;99.90;;;;;;5065902;28;20232;-82
2022/01/04 07:38:23;;;;;;;0.10;0.10;;;8.50;99.90;;;;;;5061595;28;20205;-83
2022/01/04 07:40:48;;;;;;;0.20;0.20;;;8.30;99.90;;;;;;5059760;28;20190;-83
2022/01/04 07:43:14;;;;;;;0.17;0.17;;;8.10;99.90;;;;;;5060322;28;20215;-83
2022/01/04 07:45:40;;;;;;;1.20;0.40;;;8.00;99.90;;;;;;5062645;28;20290;-82
2022/01/04 07:48:10;;;;;;;0.30;0.30;;;8.00;99.90;;;;;;5065284;28;20550;-82
2022/01/04 07:50:37;;;;;;;1.37;0.87;;;7.90;99.90;;;;;;5061997;28;20188;-82
2022/01/04 07:53:03;;;;;;;2.23;1.70;;;8.00;99.90;;;;;;5060151;28;20211;-82
2022/01/04 07:55:28;;;;;;;1.93;0.43;;;8.00;99.90;;;;;;5067803;28;20176;-82
2022/01/04 07:57:54;;;;;;;0.10;0.10;;;8.00;99.90;;;;;;5066632;28;20184;-82
2022/01/04 08:00:20;;;;;;;0.10;0.10;;;7.90;99.90;;;;;;5065142;28;20175;-83
2022/01/04 08:02:46;;;;;;;0.00;0.00;;;7.90;99.90;;;;;;5068688;28;20182;-82
2022/01/04 08:05:12;;;;;;;0.10;0.10;;;8.00;99.90;;;;;;5069567;28;20197;-82
2022/01/04 08:07:38;;;;;;;0.10;0.10;;;7.90;99.90;;;;;;5068320;28;20207;-82
2022/01/04 08:10:05;;;;;;;0.10;0.10;;;8.00;99.90;;;;;;5069871;28;20199;-82
2022/01/04 08:12:31;;;;;;;0.10;0.10;;;8.00;99.90;;;;;;5066673;28;20184;-81
2022/01/04 08:14:57;;;;;;;0.10;0.10;;;8.00;99.90;;;;;;5064455;28;20557;-82
2022/01/04 08:17:23;;;;;;;0.00;0.00;;;8.00;99.90;;;;;;5064795;28;20185;-82
2022/01/04 08:19:51;;;;;;;0.10;0.10;;;7.90;99.90;;;;;;5066670;28;20208;-82
2022/01/04 08:22:17;;;;;;;0.10;0.10;;;8.00;99.90;;;;;;5064622;28;20420;-82
2022/01/04 08:24:42;;;;;;;0.10;0.10;;;8.20;99.90;;;;;;5066586;28;20205;-82
2022/01/04 08:27:08;;;;;;;0.00;0.00;;;8.40;99.90;;;;;;5065397;28;20583;-82
2022/01/04 08:29:33;;;;;;;0.00;0.00;;;8.70;99.90;;;;;;5072225;28;20647;-82
2022/01/04 08:31:59;;;;;;;0.10;0.10;;;8.60;99.90;;;;;;5072077;28;20184;-81
2022/01/04 08:34:25;;;;;;;0.30;0.20;;;8.60;99.90;;;;;;5063428;28;20225;-82
2022/01/04 08:36:51;;;;;;;0.07;0.07;;;8.50;99.90;;;;;;5067240;28;20182;-82
2022/01/04 08:39:16;;;;;;;0.10;0.10;;;8.40;99.90;;;;;;5066926;28;20221;-82
2022/01/04 08:41:43;;;;;;;0.10;0.10;;;8.50;99.90;;;;;;5071430;28;20190;-82
2022/01/04 08:44:09;;;;;;;0.10;0.10;;;8.80;99.90;;;;;;5068217;28;20204;-82
2022/01/04 08:46:36;;;;;;;0.03;0.03;;;9.00;99.90;;;;;;5065779;28;20182;-82
2022/01/04 08:49:03;;;;;;;0.00;0.00;;;9.10;99.90;;;;;;5067368;28;20192;-82
2022/01/04 08:51:29;;;;;;;0.03;0.03;;;9.20;99.90;;;;;;5067244;28;20182;-82
2022/01/04 08:53:54;;;;;;;0.30;0.30;;;9.30;99.90;;;;;;5065034;28;20592;-82
2022/01/04 08:56:20;;;;;;;0.10;0.10;;;9.30;99.90;;;;;;5067633;28;20665;-82
2022/01/04 08:58:45;;;;;;;0.00;0.00;;;9.40;99.90;;;;;;5066044;28;20902;-82
2022/01/04 09:01:11;;;;;;;0.10;0.10;;;9.50;99.90;;;;;;5065878;28;20188;-82
2022/01/04 09:03:37;;;;;;;0.17;0.17;;;9.60;99.90;;;;;;5069887;28;20205;-82
2022/01/04 09:06:02;;;;;;;0.07;0.07;;;9.60;99.90;;;;;;5070940;28;20188;-82
2022/01/04 09:08:28;;;;;;;0.10;0.10;;;9.50;99.90;;;;;;5068564;28;20244;-82
2022/01/04 09:10:54;;;;;;;0.10;0.10;;;9.20;99.90;;;;;;5065798;28;20198;-82
2022/01/04 09:13:22;;;;;;;0.10;0.10;;;9.10;99.90;;;;;;5065319;28;20297;-82
2022/01/04 09:18:43;;;;;;;0.00;0.00;;;9.20;99.90;;;;;;5072517;28;20883;-82
2022/01/04 09:18:49;;;;;;;0.00;0.00;;;9.30;99.90;;;;;;5065672;28;20236;-82
2022/01/04 09:21:29;;;;;;;0.00;0.00;;;8.90;99.90;;;;;;5061644;28;20213;-82
2022/01/04 09:23:56;;;;;;;0.13;0.13;;;8.80;99.90;;;;;;5053178;28;20235;-82
2022/01/04 09:26:23;;;;;;;0.10;0.10;;;8.60;99.90;;;;;;5061911;28;20896;-82
2022/01/04 09:28:49;;;;;;;0.10;0.10;;;8.80;99.90;;;;;;5065282;28;20194;-83
2022/01/04 09:31:14;;;;;;;0.10;0.10;;;8.70;99.90;;;;;;5059623;28;20186;-82
2022/01/04 09:33:41;;;;;;;0.10;0.10;;;8.50;99.90;;;;;;5064120;28;20221;-82
2022/01/04 09:36:07;;;;;;;0.10;0.10;;;8.30;99.90;;;;;;5064923;28;20185;-82
2022/01/04 09:38:33;;;;;;;0.00;0.00;;;8.40;99.90;;;;;;5063070;28;20191;-82
2022/01/04 09:40:59;;;;;;;0.10;0.10;;;8.40;99.90;;;;;;5066275;28;20186;-82
2022/01/04 09:43:25;;;;;;;0.00;0.00;;;8.50;99.90;;;;;;5062829;28;20248;-82
2022/01/04 09:45:52;;;;;;;0.10;0.10;;;8.40;99.90;;;;;;5065330;28;20613;-82
2022/01/04 09:48:19;;;;;;;0.10;0.10;;;8.10;99.90;;;;;;5060393;28;20876;-82
2022/01/04 09:50:46;;;;;;;0.00;0.00;;;7.90;99.90;;;;;;5062349;28;20185;-82
2022/01/04 09:53:19;;;;;;;0.10;0.10;;;8.20;99.90;;;;;;5062082;28;20233;-82
2022/01/04 09:55:47;;;;;;;0.10;0.10;;;8.40;99.90;;;;;;5064430;28;20275;-82
2022/01/04 09:58:13;;;;;;;0.00;0.00;;;8.50;99.90;;;;;;5065135;28;20246;-82
2022/01/04 10:00:38;;;;;;;0.10;0.10;;;8.40;99.90;;;;;;5067296;28;20183;-82
2022/01/04 10:03:16;;;;;;;0.10;0.10;;;8.30;99.90;;;;;;5061555;28;20202;-82
2022/01/04 10:05:43;;;;;;;0.10;0.10;;;8.30;99.90;;;;;;5062260;28;20665;-82
2022/01/04 10:08:10;;;;;;;0.10;0.10;;;8.10;99.90;;;;;;5061621;28;20536;-82
2022/01/04 10:10:37;;;;;;;0.10;0.10;;;8.10;99.90;;;;;;5065810;28;20204;-82
2022/01/04 10:13:09;;;;;;;0.00;0.00;;;8.30;99.90;;;;;;5064755;28;20258;-82
2022/01/04 10:15:40;;;;;;;0.30;0.20;;;8.30;99.90;;;;;;5064197;28;20211;-82
2022/01/04 10:18:12;;;;;;;0.20;0.20;;;8.10;99.90;;;;;;5066455;28;20299;-82
2022/01/04 10:20:41;;;;;;;0.43;0.20;;;7.90;99.90;;;;;;5060273;28;22354;-81
2022/01/04 10:23:11;;;;;;;0.10;0.10;;;7.90;99.90;;;;;;5063024;28;20217;-83
2022/01/04 10:25:37;;;;;;;0.00;0.00;;;7.70;99.90;;;;;;5061717;28;20719;-82
2022/01/04 10:28:04;;;;;;;0.10;0.10;;;7.80;99.90;;;;;;5069064;28;20188;-82
2022/01/04 10:30:36;;;;;;;0.10;0.10;;;7.90;99.90;;;;;;5065857;28;20174;-82
2022/01/04 10:33:04;;;;;;;0.40;0.40;;;8.00;99.90;;;;;;5063982;28;20689;-82
2022/01/04 10:35:40;;;;;;;1.93;1.57;;;8.00;99.90;;;;;;5066717;28;20199;-82
2022/01/04 10:38:18;;;;;;;0.50;0.50;;;8.00;99.90;;;;;;5063326;28;20192;-82
2022/01/04 10:41:03;;;;;;;0.33;0.33;;;8.10;99.90;;;;;;5063597;28;20267;-82
2022/01/04 10:43:46;;;;;;;0.60;0.60;;;8.10;99.90;;;;;;5067105;28;20289;-82
2022/01/04 10:46:13;;;;;;;0.63;0.50;;;8.20;99.90;;;;;;5064109;28;21176;-81
2022/01/04 10:48:42;;;;;;;0.30;0.20;;;8.10;99.90;;;;;;5059438;28;20300;-82
2022/01/04 10:51:21;;;;;;;0.03;0.03;;;8.20;99.90;;;;;;5065012;28;20189;-82
2022/01/04 10:53:51;;;;;;;0.40;0.40;;;8.10;99.90;;;;;;5066219;28;20216;-82
2022/01/04 10:56:26;;;;;;;0.10;0.10;;;8.20;99.90;;;;;;5062585;28;20183;-82
2022/01/04 10:58:54;;;;;;;0.53;0.27;;;8.10;99.90;;;;;;5067514;28;20266;-81
2022/01/04 11:01:21;;;;;;;0.33;0.33;;;7.90;99.90;;;;;;5058020;28;20192;-81
2022/01/04 11:03:53;;;;;;;0.10;0.10;;;7.70;99.90;;;;;;5063074;28;20279;-81
2022/01/04 11:06:34;;;;;;;0.10;0.10;;;7.50;99.90;;;;;;5063493;28;20572;-81
2022/01/04 11:09:00;;;;;;;0.10;0.10;;;7.30;99.90;;;;;;5064443;28;20824;-81
2022/01/04 11:11:26;;;;;;;0.10;0.10;;;7.30;99.90;;;;;;5062892;28;20188;-82
2022/01/04 11:13:53;;;;;;;0.17;0.17;;;7.50;99.90;;;;;;5060815;28;20230;-82
2022/01/04 11:16:22;;;;;;;0.30;0.30;;;7.60;99.90;;;;;;5061317;28;20706;-82
2022/01/04 11:18:50;;;;;;;0.23;0.23;;;7.60;99.90;;;;;;5061079;28;20182;-82
2022/01/04 11:21:24;;;;;;;0.10;0.10;;;7.80;99.90;;;;;;5065093;28;20789;-82
2022/01/04 11:23:50;;;;;;;0.00;0.00;;;7.90;99.90;;;;;;5058403;28;20212;-82
2022/01/04 11:26:17;;;;;;;0.17;0.17;;;8.00;99.90;;;;;;5062230;28;20189;-81
2022/01/04 11:28:46;;;;;;;0.03;0.03;;;8.10;99.90;;;;;;5064329;28;20176;-82
2022/01/04 11:31:44;;;;;;;1.07;0.10;;;8.30;99.90;;;;;;5061853;28;20192;-82
2022/01/04 11:34:15;;;;;;;0.10;0.10;;;8.10;99.90;;;;;;5059527;28;20724;-82
2022/01/04 11:36:44;;;;;;;0.00;0.00;;;8.30;99.90;;;;;;5058167;28;20185;-82
2022/01/04 11:39:32;;;;;;;0.07;0.07;;;8.40;99.90;;;;;;5061862;28;20189;-81
2022/01/04 11:42:02;;;;;;;0.10;0.10;;;8.60;99.90;;;;;;5061431;28;20201;-81
2022/01/04 11:44:29;;;;;;;0.20;0.10;;;8.70;99.90;;;;;;5065127;28;20212;-81
2022/01/04 11:47:10;;;;;;;0.00;0.00;;;8.70;99.90;;;;;;5063364;28;20190;-82
2022/01/04 11:49:39;;;;;;;0.10;0.10;;;8.80;99.90;;;;;;5065205;28;20189;-81
2022/01/04 11:52:07;;;;;;;0.20;0.20;;;8.90;99.90;;;;;;5062771;28;20185;-82
2022/01/04 11:54:34;;;;;;;0.30;0.30;;;8.90;99.90;;;;;;5062470;28;20242;-83
2022/01/04 11:57:18;;;;;;;0.10;0.10;;;9.00;99.90;;;;;;5065825;28;20316;-81
2022/01/04 11:59:56;;;;;;;0.00;0.00;;;9.00;99.90;;;;;;5066004;28;20198;-82
2022/01/04 12:02:31;;;;;;;0.00;0.00;;;9.10;99.90;;;;;;5067782;28;20188;-82
2022/01/04 12:05:04;;;;;;;0.27;0.20;;;9.10;99.90;;;;;;5065581;28;20184;-82
2022/01/04 12:07:39;;;;;;;0.00;0.00;;;9.10;99.90;;;;;;5069496;28;20180;-81
2022/01/04 12:10:32;;;;;;;0.07;0.07;;;9.10;99.90;;;;;;5071326;28;20190;-82
2022/01/04 12:12:59;;;;;;;0.10;0.10;;;9.20;99.90;;;;;;5068531;28;21045;-82
2022/01/04 12:15:34;;;;;;;0.03;0.03;;;9.20;99.90;;;;;;5070032;28;20194;-82
2022/01/04 12:18:08;;;;;;;0.43;0.20;;;9.10;99.90;;;;;;5068285;28;20280;-82
2022/01/04 12:20:42;;;;;;;0.10;0.10;;;9.10;99.90;;;;;;5068311;28;20667;-82
2022/01/04 12:23:29;;;;;;;0.20;0.20;;;9.10;99.90;;;;;;5071709;28;20209;-82
2022/01/04 12:26:13;;;;;;;0.10;0.10;;;9.10;99.90;;;;;;5063120;28;20266;-81
2022/01/04 12:28:43;;;;;;;0.10;0.10;;;9.10;99.90;;;;;;5067694;28;20173;-81
2022/01/04 12:31:18;;;;;;;0.10;0.10;;;9.20;99.90;;;;;;5069748;28;20213;-81
2022/01/04 12:34:05;;;;;;;0.30;0.30;;;9.10;99.90;;;;;;5071705;28;20218;-82
2022/01/04 12:36:41;;;;;;;0.30;0.30;;;9.10;99.90;;;;;;5071560;28;20181;-81
2022/01/04 12:39:13;;;;;;;0.10;0.10;;;9.10;99.90;;;;;;5067970;28;20238;-81
2022/01/04 12:41:41;;;;;;;0.10;0.10;;;9.10;99.90;;;;;;5066358;28;20177;-81
2022/01/04 12:44:08;;;;;;;1.27;0.47;;;9.10;99.90;;;;;;5067355;28;20259;-81
2022/01/04 12:46:38;;;;;;;0.10;0.10;;;9.10;99.90;;;;;;5065148;28;20281;-82
2022/01/04 12:49:06;;;;;;;1.40;0.20;;;9.10;99.90;;;;;;5066496;28;20178;-81
2022/01/04 12:51:33;;;;;;;0.10;0.10;;;9.00;99.90;;;;;;5065798;28;20185;-82
2022/01/04 12:54:01;;;;;;;0.10;0.10;;;9.00;99.90;;;;;;5064512;28;20243;-82
2022/01/04 12:56:28;;;;;;;0.40;0.17;;;8.90;99.90;;;;;;5064162;28;20191;-82
2022/01/04 12:58:57;;;;;;;0.30;0.30;;;8.90;99.90;;;;;;5068314;28;20280;-82
2022/01/04 13:01:29;;;;;;;0.53;0.20;;;8.80;99.90;;;;;;5067805;28;20187;-81
2022/01/04 13:03:56;;;;;;;0.20;0.03;;;8.80;99.90;;;;;;5065226;28;20216;-81